sensor_id;sensor_type;location;lat;lon;timestamp;P1;durP1;ratioP1;P2;durP2;ratioP2
74898;SDS011;63458;48.210;16.338;2023-03-01T00:02:05;35.50;;;20.65;;
74898;SDS011;63458;48.210;16.338;2023-03-01T00:04:31;30.30;;;17.70;;
74898;SDS011;63458;48.210;16.338;2023-03-01T00:06:57;27.13;;;15.07;;
74898;SDS011;63458;48.210;16.338;2023-03-01T00:09:23;26.50;;;15.77;;
74898;SDS011;63458;48.210;16.338;2023-03-01T00:11:49;26.85;;;15.48;;
74898;SDS011;63458;48.210;16.338;2023-03-01T00:14:15;29.30;;;16.20;;
74898;SDS011;63458;48.210;16.338;2023-03-01T00:16:43;28.65;;;16.70;;
74898;SDS011;63458;48.210;16.338;2023-03-01T00:19:11;27.83;;;15.73;;
74898;SDS011;63458;48.210;16.338;2023-03-01T00:21:38;25.80;;;16.33;;
74898;SDS011;63458;48.210;16.338;2023-03-01T00:24:04;24.88;;;15.88;;
74898;SDS011;63458;48.210;16.338;2023-03-01T00:26:30;29.48;;;15.60;;
74898;SDS011;63458;48.210;16.338;2023-03-01T00:28:57;26.05;;;15.32;;
74898;SDS011;63458;48.210;16.338;2023-03-01T00:31:24;26.73;;;15.45;;
74898;SDS011;63458;48.210;16.338;2023-03-01T00:33:53;29.80;;;16.45;;
74898;SDS011;63458;48.210;16.338;2023-03-01T00:36:23;30.17;;;16.23;;
74898;SDS011;63458;48.210;16.338;2023-03-01T00:38:49;29.98;;;16.05;;
74898;SDS011;63458;48.210;16.338;2023-03-01T00:41:16;27.75;;;18.63;;
74898;SDS011;63458;48.210;16.338;2023-03-01T00:43:43;30.30;;;18.15;;
74898;SDS011;63458;48.210;16.338;2023-03-01T00:46:10;29.13;;;16.80;;
74898;SDS011;63458;48.210;16.338;2023-03-01T00:48:37;30.27;;;16.63;;
74898;SDS011;63458;48.210;16.338;2023-03-01T00:53:32;27.70;;;15.82;;
74898;SDS011;63458;48.210;16.338;2023-03-01T00:55:58;27.73;;;15.25;;
74898;SDS011;63458;48.210;16.338;2023-03-01T00:58:24;26.52;;;15.95;;
74898;SDS011;63458;48.210;16.338;2023-03-01T01:00:50;29.08;;;17.15;;
74898;SDS011;63458;48.210;16.338;2023-03-01T01:03:17;29.65;;;17.27;;
74898;SDS011;63458;48.210;16.338;2023-03-01T01:05:44;29.48;;;16.27;;
74898;SDS011;63458;48.210;16.338;2023-03-01T01:08:10;29.02;;;16.40;;
74898;SDS011;63458;48.210;16.338;2023-03-01T01:10:36;25.73;;;17.40;;
74898;SDS011;63458;48.210;16.338;2023-03-01T01:13:02;28.17;;;16.35;;
74898;SDS011;63458;48.210;16.338;2023-03-01T01:15:28;30.60;;;17.15;;
74898;SDS011;63458;48.210;16.338;2023-03-01T01:17:54;30.42;;;17.60;;
74898;SDS011;63458;48.210;16.338;2023-03-01T01:20:20;28.48;;;17.08;;
74898;SDS011;63458;48.210;16.338;2023-03-01T01:22:46;28.58;;;18.35;;
74898;SDS011;63458;48.210;16.338;2023-03-01T01:25:12;28.80;;;17.00;;
74898;SDS011;63458;48.210;16.338;2023-03-01T01:27:38;29.15;;;16.98;;
74898;SDS011;63458;48.210;16.338;2023-03-01T01:30:05;25.40;;;15.70;;
74898;SDS011;63458;48.210;16.338;2023-03-01T01:32:31;27.05;;;16.00;;
74898;SDS011;63458;48.210;16.338;2023-03-01T01:34:57;28.70;;;18.25;;
74898;SDS011;63458;48.210;16.338;2023-03-01T01:37:23;31.83;;;15.77;;
74898;SDS011;63458;48.210;16.338;2023-03-01T01:39:56;26.55;;;16.38;;
74898;SDS011;63458;48.210;16.338;2023-03-01T01:42:22;26.67;;;16.40;;
74898;SDS011;63458;48.210;16.338;2023-03-01T01:44:48;30.70;;;17.48;;
74898;SDS011;63458;48.210;16.338;2023-03-01T01:47:18;27.50;;;16.30;;
74898;SDS011;63458;48.210;16.338;2023-03-01T01:49:46;27.38;;;16.50;;
74898;SDS011;63458;48.210;16.338;2023-03-01T01:52:17;28.15;;;16.30;;
74898;SDS011;63458;48.210;16.338;2023-03-01T01:57:23;30.10;;;18.00;;
74898;SDS011;63458;48.210;16.338;2023-03-01T01:59:52;28.98;;;18.08;;
74898;SDS011;63458;48.210;16.338;2023-03-01T02:02:20;29.33;;;17.48;;
74898;SDS011;63458;48.210;16.338;2023-03-01T02:04:47;31.63;;;18.25;;
74898;SDS011;63458;48.210;16.338;2023-03-01T02:07:15;28.77;;;16.63;;
74898;SDS011;63458;48.210;16.338;2023-03-01T02:09:42;32.20;;;16.90;;
74898;SDS011;63458;48.210;16.338;2023-03-01T02:12:10;27.33;;;17.08;;
74898;SDS011;63458;48.210;16.338;2023-03-01T02:14:36;30.35;;;17.85;;
74898;SDS011;63458;48.210;16.338;2023-03-01T02:17:02;30.73;;;17.27;;
74898;SDS011;63458;48.210;16.338;2023-03-01T02:27:26;29.48;;;19.15;;
74898;SDS011;63458;48.210;16.338;2023-03-01T02:29:53;27.85;;;18.02;;
74898;SDS011;63458;48.210;16.338;2023-03-01T02:32:19;34.40;;;17.58;;
74898;SDS011;63458;48.210;16.338;2023-03-01T02:34:51;34.28;;;18.55;;
74898;SDS011;63458;48.210;16.338;2023-03-01T02:37:17;28.80;;;17.83;;
74898;SDS011;63458;48.210;16.338;2023-03-01T02:39:51;30.35;;;17.80;;
74898;SDS011;63458;48.210;16.338;2023-03-01T02:42:21;29.95;;;18.27;;
74898;SDS011;63458;48.210;16.338;2023-03-01T02:44:49;32.25;;;18.30;;
74898;SDS011;63458;48.210;16.338;2023-03-01T02:47:15;30.20;;;17.23;;
74898;SDS011;63458;48.210;16.338;2023-03-01T02:49:41;29.13;;;17.77;;
74898;SDS011;63458;48.210;16.338;2023-03-01T02:54:36;34.00;;;19.33;;
74898;SDS011;63458;48.210;16.338;2023-03-01T02:57:05;29.40;;;19.65;;
74898;SDS011;63458;48.210;16.338;2023-03-01T02:59:32;28.98;;;18.08;;
74898;SDS011;63458;48.210;16.338;2023-03-01T03:02:04;29.58;;;17.98;;
74898;SDS011;63458;48.210;16.338;2023-03-01T03:04:30;30.90;;;18.13;;
74898;SDS011;63458;48.210;16.338;2023-03-01T03:06:57;30.50;;;18.27;;
74898;SDS011;63458;48.210;16.338;2023-03-01T03:09:23;29.17;;;16.85;;
74898;SDS011;63458;48.210;16.338;2023-03-01T03:11:49;30.50;;;17.92;;
74898;SDS011;63458;48.210;16.338;2023-03-01T03:14:16;30.38;;;16.98;;
74898;SDS011;63458;48.210;16.338;2023-03-01T03:16:43;29.83;;;17.20;;
74898;SDS011;63458;48.210;16.338;2023-03-01T03:19:10;31.13;;;18.13;;
74898;SDS011;63458;48.210;16.338;2023-03-01T03:21:36;30.60;;;18.13;;
74898;SDS011;63458;48.210;16.338;2023-03-01T03:24:03;30.17;;;18.10;;
74898;SDS011;63458;48.210;16.338;2023-03-01T03:26:29;30.55;;;19.50;;
74898;SDS011;63458;48.210;16.338;2023-03-01T03:28:55;32.38;;;18.98;;
74898;SDS011;63458;48.210;16.338;2023-03-01T03:31:22;28.88;;;16.27;;
74898;SDS011;63458;48.210;16.338;2023-03-01T03:33:48;28.80;;;16.55;;
74898;SDS011;63458;48.210;16.338;2023-03-01T03:36:17;34.03;;;18.30;;
74898;SDS011;63458;48.210;16.338;2023-03-01T03:38:44;30.05;;;19.30;;
74898;SDS011;63458;48.210;16.338;2023-03-01T03:41:11;32.72;;;19.20;;
74898;SDS011;63458;48.210;16.338;2023-03-01T03:43:38;28.15;;;17.77;;
74898;SDS011;63458;48.210;16.338;2023-03-01T03:46:05;31.48;;;19.85;;
74898;SDS011;63458;48.210;16.338;2023-03-01T03:48:42;32.03;;;18.85;;
74898;SDS011;63458;48.210;16.338;2023-03-01T03:51:15;29.08;;;18.83;;
74898;SDS011;63458;48.210;16.338;2023-03-01T03:53:42;28.80;;;18.52;;
74898;SDS011;63458;48.210;16.338;2023-03-01T03:56:08;28.60;;;17.50;;
74898;SDS011;63458;48.210;16.338;2023-03-01T03:58:35;33.60;;;19.33;;
74898;SDS011;63458;48.210;16.338;2023-03-01T04:01:01;32.50;;;18.15;;
74898;SDS011;63458;48.210;16.338;2023-03-01T04:03:27;33.70;;;18.90;;
74898;SDS011;63458;48.210;16.338;2023-03-01T04:05:53;33.47;;;19.33;;
74898;SDS011;63458;48.210;16.338;2023-03-01T04:08:20;31.20;;;19.33;;
74898;SDS011;63458;48.210;16.338;2023-03-01T04:10:48;28.70;;;17.73;;
74898;SDS011;63458;48.210;16.338;2023-03-01T04:13:18;27.58;;;17.23;;
74898;SDS011;63458;48.210;16.338;2023-03-01T04:15:45;30.50;;;18.17;;
74898;SDS011;63458;48.210;16.338;2023-03-01T04:18:12;32.17;;;18.35;;
74898;SDS011;63458;48.210;16.338;2023-03-01T04:20:38;29.13;;;17.63;;
74898;SDS011;63458;48.210;16.338;2023-03-01T04:23:05;29.40;;;17.10;;
74898;SDS011;63458;48.210;16.338;2023-03-01T04:25:41;31.00;;;19.25;;
74898;SDS011;63458;48.210;16.338;2023-03-01T04:28:08;34.50;;;20.30;;
74898;SDS011;63458;48.210;16.338;2023-03-01T04:30:34;29.20;;;16.83;;
74898;SDS011;63458;48.210;16.338;2023-03-01T04:33:04;32.30;;;17.98;;
74898;SDS011;63458;48.210;16.338;2023-03-01T04:35:31;29.38;;;18.40;;
74898;SDS011;63458;48.210;16.338;2023-03-01T04:37:57;31.05;;;19.17;;
74898;SDS011;63458;48.210;16.338;2023-03-01T04:40:23;32.67;;;17.70;;
74898;SDS011;63458;48.210;16.338;2023-03-01T04:42:50;32.00;;;19.45;;
74898;SDS011;63458;48.210;16.338;2023-03-01T04:45:16;32.65;;;18.25;;
74898;SDS011;63458;48.210;16.338;2023-03-01T04:47:43;30.73;;;18.98;;
74898;SDS011;63458;48.210;16.338;2023-03-01T04:50:10;33.75;;;19.08;;
74898;SDS011;63458;48.210;16.338;2023-03-01T04:52:36;34.38;;;20.60;;
74898;SDS011;63458;48.210;16.338;2023-03-01T04:55:02;30.83;;;18.17;;
74898;SDS011;63458;48.210;16.338;2023-03-01T04:57:29;31.67;;;17.40;;
74898;SDS011;63458;48.210;16.338;2023-03-01T04:59:55;33.50;;;19.15;;
74898;SDS011;63458;48.210;16.338;2023-03-01T05:02:21;32.08;;;17.95;;
74898;SDS011;63458;48.210;16.338;2023-03-01T05:04:47;30.05;;;18.70;;
74898;SDS011;63458;48.210;16.338;2023-03-01T05:07:13;46.38;;;26.98;;
74898;SDS011;63458;48.210;16.338;2023-03-01T05:09:45;44.70;;;26.00;;
74898;SDS011;63458;48.210;16.338;2023-03-01T05:12:11;31.02;;;19.25;;
74898;SDS011;63458;48.210;16.338;2023-03-01T05:14:37;32.67;;;19.63;;
74898;SDS011;63458;48.210;16.338;2023-03-01T05:17:04;30.83;;;18.65;;
74898;SDS011;63458;48.210;16.338;2023-03-01T05:19:30;36.08;;;18.70;;
74898;SDS011;63458;48.210;16.338;2023-03-01T05:21:57;35.80;;;20.70;;
74898;SDS011;63458;48.210;16.338;2023-03-01T05:24:27;31.92;;;19.92;;
74898;SDS011;63458;48.210;16.338;2023-03-01T05:26:53;30.45;;;19.08;;
74898;SDS011;63458;48.210;16.338;2023-03-01T05:29:20;33.28;;;19.30;;
74898;SDS011;63458;48.210;16.338;2023-03-01T05:31:56;30.25;;;17.30;;
74898;SDS011;63458;48.210;16.338;2023-03-01T05:34:27;29.73;;;17.17;;
74898;SDS011;63458;48.210;16.338;2023-03-01T05:36:53;30.98;;;19.30;;
74898;SDS011;63458;48.210;16.338;2023-03-01T05:39:23;51.13;;;28.10;;
74898;SDS011;63458;48.210;16.338;2023-03-01T05:41:57;41.33;;;25.90;;
74898;SDS011;63458;48.210;16.338;2023-03-01T05:44:23;39.58;;;22.05;;
74898;SDS011;63458;48.210;16.338;2023-03-01T05:46:50;34.55;;;20.00;;
74898;SDS011;63458;48.210;16.338;2023-03-01T05:49:16;33.28;;;18.98;;
74898;SDS011;63458;48.210;16.338;2023-03-01T05:51:43;34.42;;;19.45;;
74898;SDS011;63458;48.210;16.338;2023-03-01T05:54:12;30.70;;;18.65;;
74898;SDS011;63458;48.210;16.338;2023-03-01T05:56:38;30.80;;;18.98;;
74898;SDS011;63458;48.210;16.338;2023-03-01T05:59:04;29.23;;;17.88;;
74898;SDS011;63458;48.210;16.338;2023-03-01T06:01:34;29.63;;;18.88;;
74898;SDS011;63458;48.210;16.338;2023-03-01T06:04:00;31.90;;;18.40;;
74898;SDS011;63458;48.210;16.338;2023-03-01T06:06:27;31.17;;;17.58;;
74898;SDS011;63458;48.210;16.338;2023-03-01T06:08:53;36.13;;;21.70;;
74898;SDS011;63458;48.210;16.338;2023-03-01T06:11:19;37.20;;;21.00;;
74898;SDS011;63458;48.210;16.338;2023-03-01T06:13:45;31.90;;;18.40;;
74898;SDS011;63458;48.210;16.338;2023-03-01T06:16:12;31.98;;;18.85;;
74898;SDS011;63458;48.210;16.338;2023-03-01T06:18:38;31.95;;;17.98;;
74898;SDS011;63458;48.210;16.338;2023-03-01T06:21:05;32.05;;;18.85;;
74898;SDS011;63458;48.210;16.338;2023-03-01T06:23:31;32.80;;;17.92;;
74898;SDS011;63458;48.210;16.338;2023-03-01T06:25:57;30.55;;;19.83;;
74898;SDS011;63458;48.210;16.338;2023-03-01T06:28:23;30.50;;;17.98;;
74898;SDS011;63458;48.210;16.338;2023-03-01T06:30:49;33.15;;;19.30;;
74898;SDS011;63458;48.210;16.338;2023-03-01T06:33:16;29.60;;;17.08;;
74898;SDS011;63458;48.210;16.338;2023-03-01T06:35:44;33.28;;;20.98;;
74898;SDS011;63458;48.210;16.338;2023-03-01T06:38:11;38.17;;;22.23;;
74898;SDS011;63458;48.210;16.338;2023-03-01T06:40:40;35.25;;;21.35;;
74898;SDS011;63458;48.210;16.338;2023-03-01T06:43:06;30.33;;;19.03;;
74898;SDS011;63458;48.210;16.338;2023-03-01T06:45:33;31.38;;;18.25;;
74898;SDS011;63458;48.210;16.338;2023-03-01T06:48:02;29.30;;;17.05;;
74898;SDS011;63458;48.210;16.338;2023-03-01T06:50:29;32.17;;;18.52;;
74898;SDS011;63458;48.210;16.338;2023-03-01T06:52:55;32.45;;;17.35;;
74898;SDS011;63458;48.210;16.338;2023-03-01T06:55:21;27.17;;;17.17;;
74898;SDS011;63458;48.210;16.338;2023-03-01T06:57:47;29.27;;;18.05;;
74898;SDS011;63458;48.210;16.338;2023-03-01T07:00:13;37.28;;;19.05;;
74898;SDS011;63458;48.210;16.338;2023-03-01T07:02:40;33.70;;;19.27;;
74898;SDS011;63458;48.210;16.338;2023-03-01T07:05:06;35.53;;;19.65;;
74898;SDS011;63458;48.210;16.338;2023-03-01T07:07:32;32.03;;;19.60;;
74898;SDS011;63458;48.210;16.338;2023-03-01T07:09:58;30.10;;;18.88;;
74898;SDS011;63458;48.210;16.338;2023-03-01T07:12:24;33.03;;;21.23;;
74898;SDS011;63458;48.210;16.338;2023-03-01T07:14:50;36.35;;;20.23;;
74898;SDS011;63458;48.210;16.338;2023-03-01T07:17:16;30.70;;;18.95;;
74898;SDS011;63458;48.210;16.338;2023-03-01T07:19:43;31.05;;;19.38;;
74898;SDS011;63458;48.210;16.338;2023-03-01T07:22:10;32.42;;;19.73;;
74898;SDS011;63458;48.210;16.338;2023-03-01T07:24:36;33.28;;;18.77;;
74898;SDS011;63458;48.210;16.338;2023-03-01T07:27:02;33.58;;;18.40;;
74898;SDS011;63458;48.210;16.338;2023-03-01T07:29:28;36.67;;;19.92;;
74898;SDS011;63458;48.210;16.338;2023-03-01T07:31:54;30.70;;;19.00;;
74898;SDS011;63458;48.210;16.338;2023-03-01T07:34:20;35.40;;;19.75;;
74898;SDS011;63458;48.210;16.338;2023-03-01T07:36:46;35.95;;;19.60;;
74898;SDS011;63458;48.210;16.338;2023-03-01T07:39:12;32.53;;;20.95;;
74898;SDS011;63458;48.210;16.338;2023-03-01T07:41:38;30.40;;;18.70;;
74898;SDS011;63458;48.210;16.338;2023-03-01T07:44:04;33.40;;;19.02;;
74898;SDS011;63458;48.210;16.338;2023-03-01T07:46:31;30.50;;;17.30;;
74898;SDS011;63458;48.210;16.338;2023-03-01T07:48:57;31.17;;;19.77;;
74898;SDS011;63458;48.210;16.338;2023-03-01T07:51:23;30.30;;;18.50;;
74898;SDS011;63458;48.210;16.338;2023-03-01T07:53:49;32.60;;;18.58;;
74898;SDS011;63458;48.210;16.338;2023-03-01T07:56:15;31.77;;;18.25;;
74898;SDS011;63458;48.210;16.338;2023-03-01T07:58:43;30.17;;;17.88;;
74898;SDS011;63458;48.210;16.338;2023-03-01T08:01:14;33.63;;;19.05;;
74898;SDS011;63458;48.210;16.338;2023-03-01T08:03:41;29.70;;;18.77;;
74898;SDS011;63458;48.210;16.338;2023-03-01T08:06:09;31.15;;;19.05;;
74898;SDS011;63458;48.210;16.338;2023-03-01T08:08:35;31.95;;;19.35;;
74898;SDS011;63458;48.210;16.338;2023-03-01T08:11:02;34.63;;;19.33;;
74898;SDS011;63458;48.210;16.338;2023-03-01T08:13:28;32.97;;;18.83;;
74898;SDS011;63458;48.210;16.338;2023-03-01T08:15:54;32.40;;;18.40;;
74898;SDS011;63458;48.210;16.338;2023-03-01T08:18:21;31.35;;;20.40;;
74898;SDS011;63458;48.210;16.338;2023-03-01T08:20:47;38.10;;;20.48;;
74898;SDS011;63458;48.210;16.338;2023-03-01T08:23:13;30.10;;;17.77;;
74898;SDS011;63458;48.210;16.338;2023-03-01T08:25:39;31.02;;;19.55;;
74898;SDS011;63458;48.210;16.338;2023-03-01T08:28:05;29.58;;;18.00;;
74898;SDS011;63458;48.210;16.338;2023-03-01T08:30:31;36.10;;;19.77;;
74898;SDS011;63458;48.210;16.338;2023-03-01T08:32:58;33.47;;;20.60;;
74898;SDS011;63458;48.210;16.338;2023-03-01T08:35:24;32.90;;;20.70;;
74898;SDS011;63458;48.210;16.338;2023-03-01T08:37:50;30.15;;;20.67;;
74898;SDS011;63458;48.210;16.338;2023-03-01T08:40:16;30.08;;;18.75;;
74898;SDS011;63458;48.210;16.338;2023-03-01T08:42:42;34.83;;;19.98;;
74898;SDS011;63458;48.210;16.338;2023-03-01T08:45:08;30.75;;;20.55;;
74898;SDS011;63458;48.210;16.338;2023-03-01T08:47:35;34.22;;;20.48;;
74898;SDS011;63458;48.210;16.338;2023-03-01T08:50:01;31.75;;;21.08;;
74898;SDS011;63458;48.210;16.338;2023-03-01T08:52:27;31.45;;;20.52;;
74898;SDS011;63458;48.210;16.338;2023-03-01T08:54:55;34.38;;;20.73;;
74898;SDS011;63458;48.210;16.338;2023-03-01T08:57:22;32.45;;;20.65;;
74898;SDS011;63458;48.210;16.338;2023-03-01T08:59:48;32.28;;;20.00;;
74898;SDS011;63458;48.210;16.338;2023-03-01T09:02:15;30.80;;;20.90;;
74898;SDS011;63458;48.210;16.338;2023-03-01T09:04:42;31.17;;;19.75;;
74898;SDS011;63458;48.210;16.338;2023-03-01T09:07:09;34.92;;;21.60;;
74898;SDS011;63458;48.210;16.338;2023-03-01T09:09:35;31.77;;;20.95;;
74898;SDS011;63458;48.210;16.338;2023-03-01T09:12:02;34.13;;;20.13;;
74898;SDS011;63458;48.210;16.338;2023-03-01T09:14:28;33.25;;;21.15;;
74898;SDS011;63458;48.210;16.338;2023-03-01T09:16:54;30.40;;;20.52;;
74898;SDS011;63458;48.210;16.338;2023-03-01T09:19:20;37.55;;;22.15;;
74898;SDS011;63458;48.210;16.338;2023-03-01T09:21:46;32.97;;;21.73;;
74898;SDS011;63458;48.210;16.338;2023-03-01T09:24:20;30.60;;;20.10;;
74898;SDS011;63458;48.210;16.338;2023-03-01T09:26:46;32.92;;;22.45;;
74898;SDS011;63458;48.210;16.338;2023-03-01T09:29:12;36.75;;;23.15;;
74898;SDS011;63458;48.210;16.338;2023-03-01T09:31:39;34.28;;;22.52;;
74898;SDS011;63458;48.210;16.338;2023-03-01T09:34:05;32.53;;;22.05;;
74898;SDS011;63458;48.210;16.338;2023-03-01T09:36:31;32.45;;;21.83;;
74898;SDS011;63458;48.210;16.338;2023-03-01T09:38:58;33.00;;;20.67;;
74898;SDS011;63458;48.210;16.338;2023-03-01T09:43:51;44.03;;;25.83;;
74898;SDS011;63458;48.210;16.338;2023-03-01T09:46:19;32.55;;;20.38;;
74898;SDS011;63458;48.210;16.338;2023-03-01T09:48:48;30.90;;;20.10;;
74898;SDS011;63458;48.210;16.338;2023-03-01T09:52:19;30.60;;;19.90;;
74898;SDS011;63458;48.210;16.338;2023-03-01T09:54:11;32.88;;;21.38;;
74898;SDS011;63458;48.210;16.338;2023-03-01T09:56:40;31.23;;;21.45;;
74898;SDS011;63458;48.210;16.338;2023-03-01T10:01:41;28.50;;;18.63;;
74898;SDS011;63458;48.210;16.338;2023-03-01T10:09:36;25.52;;;17.25;;
74898;SDS011;63458;48.210;16.338;2023-03-01T10:12:02;24.63;;;16.63;;
74898;SDS011;63458;48.210;16.338;2023-03-01T10:19:38;30.05;;;17.85;;
74898;SDS011;63458;48.210;16.338;2023-03-01T10:22:15;28.30;;;18.67;;
74898;SDS011;63458;48.210;16.338;2023-03-01T10:24:42;28.38;;;17.63;;
74898;SDS011;63458;48.210;16.338;2023-03-01T10:29:49;27.65;;;16.98;;
74898;SDS011;63458;48.210;16.338;2023-03-01T10:32:18;25.15;;;16.88;;
74898;SDS011;63458;48.210;16.338;2023-03-01T10:34:44;26.75;;;16.35;;
74898;SDS011;63458;48.210;16.338;2023-03-01T10:37:14;25.67;;;16.70;;
74898;SDS011;63458;48.210;16.338;2023-03-01T10:42:27;28.20;;;18.40;;
74898;SDS011;63458;48.210;16.338;2023-03-01T10:44:53;26.20;;;17.02;;
74898;SDS011;63458;48.210;16.338;2023-03-01T10:47:21;31.55;;;19.70;;
74898;SDS011;63458;48.210;16.338;2023-03-01T10:50:15;26.77;;;17.02;;
74898;SDS011;63458;48.210;16.338;2023-03-01T10:52:37;30.65;;;18.65;;
74898;SDS011;63458;48.210;16.338;2023-03-01T10:55:26;28.52;;;17.63;;
74898;SDS011;63458;48.210;16.338;2023-03-01T11:00:45;19.75;;;13.80;;
74898;SDS011;63458;48.210;16.338;2023-03-01T11:03:13;21.00;;;13.10;;
74898;SDS011;63458;48.210;16.338;2023-03-01T11:05:52;20.08;;;13.43;;
74898;SDS011;63458;48.210;16.338;2023-03-01T11:11:12;17.42;;;12.30;;
74898;SDS011;63458;48.210;16.338;2023-03-01T11:13:53;17.80;;;11.85;;
74898;SDS011;63458;48.210;16.338;2023-03-01T11:16:59;23.02;;;12.90;;
74898;SDS011;63458;48.210;16.338;2023-03-01T11:21:41;21.40;;;14.45;;
74898;SDS011;63458;48.210;16.338;2023-03-01T11:24:09;21.88;;;15.70;;
74898;SDS011;63458;48.210;16.338;2023-03-01T11:26:38;19.45;;;13.80;;
74898;SDS011;63458;48.210;16.338;2023-03-01T11:29:06;25.25;;;15.75;;
74898;SDS011;63458;48.210;16.338;2023-03-01T11:31:33;28.58;;;18.95;;
74898;SDS011;63458;48.210;16.338;2023-03-01T11:34:03;27.27;;;18.73;;
74898;SDS011;63458;48.210;16.338;2023-03-01T11:39:17;26.42;;;17.25;;
74898;SDS011;63458;48.210;16.338;2023-03-01T11:41:47;24.05;;;16.80;;
74898;SDS011;63458;48.210;16.338;2023-03-01T11:44:16;26.67;;;17.65;;
74898;SDS011;63458;48.210;16.338;2023-03-01T11:46:49;25.27;;;15.95;;
74898;SDS011;63458;48.210;16.338;2023-03-01T11:52:15;26.35;;;17.15;;
74898;SDS011;63458;48.210;16.338;2023-03-01T11:59:59;25.75;;;15.75;;
74898;SDS011;63458;48.210;16.338;2023-03-01T12:02:55;25.90;;;17.02;;
74898;SDS011;63458;48.210;16.338;2023-03-01T12:20:32;24.27;;;15.73;;
74898;SDS011;63458;48.210;16.338;2023-03-01T12:25:50;26.08;;;17.10;;
74898;SDS011;63458;48.210;16.338;2023-03-01T12:41:38;24.45;;;15.02;;
74898;SDS011;63458;48.210;16.338;2023-03-01T12:49:31;26.63;;;16.25;;
74898;SDS011;63458;48.210;16.338;2023-03-01T12:52:01;26.25;;;15.30;;
74898;SDS011;63458;48.210;16.338;2023-03-01T12:54:33;27.73;;;16.50;;
74898;SDS011;63458;48.210;16.338;2023-03-01T12:57:25;22.65;;;15.27;;
74898;SDS011;63458;48.210;16.338;2023-03-01T13:02:19;22.73;;;14.18;;
74898;SDS011;63458;48.210;16.338;2023-03-01T13:07:30;20.25;;;13.10;;
74898;SDS011;63458;48.210;16.338;2023-03-01T13:10:20;22.30;;;14.57;;
74898;SDS011;63458;48.210;16.338;2023-03-01T13:12:50;23.30;;;14.10;;
74898;SDS011;63458;48.210;16.338;2023-03-01T13:17:49;21.33;;;14.45;;
74898;SDS011;63458;48.210;16.338;2023-03-01T13:20:16;27.70;;;17.92;;
74898;SDS011;63458;48.210;16.338;2023-03-01T13:22:43;27.85;;;18.35;;
74898;SDS011;63458;48.210;16.338;2023-03-01T13:25:12;21.48;;;14.60;;
74898;SDS011;63458;48.210;16.338;2023-03-01T13:27:38;22.88;;;15.63;;
74898;SDS011;63458;48.210;16.338;2023-03-01T13:30:11;24.20;;;16.17;;
74898;SDS011;63458;48.210;16.338;2023-03-01T13:37:45;28.63;;;18.25;;
74898;SDS011;63458;48.210;16.338;2023-03-01T13:42:45;24.88;;;16.45;;
74898;SDS011;63458;48.210;16.338;2023-03-01T13:45:19;23.52;;;17.02;;
74898;SDS011;63458;48.210;16.338;2023-03-01T13:47:46;24.27;;;15.57;;
74898;SDS011;63458;48.210;16.338;2023-03-01T13:50:19;21.77;;;14.95;;
74898;SDS011;63458;48.210;16.338;2023-03-01T13:55:36;22.80;;;15.60;;
74898;SDS011;63458;48.210;16.338;2023-03-01T13:58:04;24.80;;;17.63;;
74898;SDS011;63458;48.210;16.338;2023-03-01T14:00:32;33.58;;;24.35;;
74898;SDS011;63458;48.210;16.338;2023-03-01T14:05:24;24.92;;;15.63;;
74898;SDS011;63458;48.210;16.338;2023-03-01T14:07:51;24.50;;;15.20;;
74898;SDS011;63458;48.210;16.338;2023-03-01T14:10:17;21.83;;;14.98;;
74898;SDS011;63458;48.210;16.338;2023-03-01T14:13:05;24.70;;;14.70;;
74898;SDS011;63458;48.210;16.338;2023-03-01T14:15:33;46.42;;;28.75;;
74898;SDS011;63458;48.210;16.338;2023-03-01T14:18:08;35.15;;;21.42;;
74898;SDS011;63458;48.210;16.338;2023-03-01T14:20:40;28.92;;;18.75;;
74898;SDS011;63458;48.210;16.338;2023-03-01T14:23:14;22.67;;;16.00;;
74898;SDS011;63458;48.210;16.338;2023-03-01T14:26:14;22.42;;;14.75;;
74898;SDS011;63458;48.210;16.338;2023-03-01T14:28:33;22.73;;;16.77;;
74898;SDS011;63458;48.210;16.338;2023-03-01T14:31:02;29.73;;;16.98;;
74898;SDS011;63458;48.210;16.338;2023-03-01T14:33:30;24.27;;;16.33;;
74898;SDS011;63458;48.210;16.338;2023-03-01T14:36:05;24.50;;;16.88;;
74898;SDS011;63458;48.210;16.338;2023-03-01T14:38:42;21.55;;;14.60;;
74898;SDS011;63458;48.210;16.338;2023-03-01T14:43:35;20.67;;;14.70;;
74898;SDS011;63458;48.210;16.338;2023-03-01T14:46:01;22.13;;;15.68;;
74898;SDS011;63458;48.210;16.338;2023-03-01T14:48:27;21.75;;;14.07;;
74898;SDS011;63458;48.210;16.338;2023-03-01T14:50:54;20.58;;;15.10;;
74898;SDS011;63458;48.210;16.338;2023-03-01T14:53:25;23.77;;;16.63;;
74898;SDS011;63458;48.210;16.338;2023-03-01T14:55:53;26.17;;;15.57;;
74898;SDS011;63458;48.210;16.338;2023-03-01T14:58:21;23.35;;;16.52;;
74898;SDS011;63458;48.210;16.338;2023-03-01T15:00:57;25.40;;;16.27;;
74898;SDS011;63458;48.210;16.338;2023-03-01T15:05:56;24.65;;;16.63;;
74898;SDS011;63458;48.210;16.338;2023-03-01T15:08:23;28.80;;;18.15;;
74898;SDS011;63458;48.210;16.338;2023-03-01T15:10:57;34.72;;;22.92;;
74898;SDS011;63458;48.210;16.338;2023-03-01T15:13:24;32.75;;;24.83;;
74898;SDS011;63458;48.210;16.338;2023-03-01T15:15:51;31.20;;;22.55;;
74898;SDS011;63458;48.210;16.338;2023-03-01T15:18:18;33.83;;;22.50;;
74898;SDS011;63458;48.210;16.338;2023-03-01T15:20:45;29.73;;;19.85;;
74898;SDS011;63458;48.210;16.338;2023-03-01T15:25:51;32.88;;;21.95;;
74898;SDS011;63458;48.210;16.338;2023-03-01T15:28:21;55.13;;;35.05;;
74898;SDS011;63458;48.210;16.338;2023-03-01T15:30:52;32.80;;;20.58;;
74898;SDS011;63458;48.210;16.338;2023-03-01T15:35:46;24.50;;;17.30;;
74898;SDS011;63458;48.210;16.338;2023-03-01T15:38:32;25.13;;;16.15;;
74898;SDS011;63458;48.210;16.338;2023-03-01T15:40:59;27.30;;;16.85;;
74898;SDS011;63458;48.210;16.338;2023-03-01T15:43:45;25.15;;;16.80;;
74898;SDS011;63458;48.210;16.338;2023-03-01T15:46:30;27.27;;;17.45;;
74898;SDS011;63458;48.210;16.338;2023-03-01T15:49:04;25.48;;;17.83;;
74898;SDS011;63458;48.210;16.338;2023-03-01T15:51:34;26.17;;;16.52;;
74898;SDS011;63458;48.210;16.338;2023-03-01T15:54:02;27.45;;;17.38;;
74898;SDS011;63458;48.210;16.338;2023-03-01T15:58:57;26.50;;;16.38;;
74898;SDS011;63458;48.210;16.338;2023-03-01T16:01:24;27.33;;;16.60;;
74898;SDS011;63458;48.210;16.338;2023-03-01T16:03:50;31.70;;;20.63;;
74898;SDS011;63458;48.210;16.338;2023-03-01T16:06:16;26.50;;;17.13;;
74898;SDS011;63458;48.210;16.338;2023-03-01T16:08:42;27.83;;;18.85;;
74898;SDS011;63458;48.210;16.338;2023-03-01T16:11:13;28.17;;;18.52;;
74898;SDS011;63458;48.210;16.338;2023-03-01T16:13:39;27.70;;;18.40;;
74898;SDS011;63458;48.210;16.338;2023-03-01T16:16:05;25.45;;;17.35;;
74898;SDS011;63458;48.210;16.338;2023-03-01T16:18:32;26.17;;;16.92;;
74898;SDS011;63458;48.210;16.338;2023-03-01T16:20:58;33.97;;;23.17;;